Search for airport 
image banner adimage banner adimage banner ad
image banner ad

KEOK - Keokuk Muni

Located in Keokuk, United States

ICAO - EOK, IATA - EOK

Data provided by Airmate  

General information

Coordinates: N40°27'36" W91°25'43"
Elevation is 672 feet MSL.
Magnetic variation is 02° East
View others Airports in Iowa

Operational data

Special qualification required
Current time UTC:
Current local time:
Weather
METAR: KEOK 181735Z AUTO 28011KT 10SM CLR 29/22 A2983 RMK AO2
View NOTAMs / SUP AIP / TFR affecting this airport [VIEW]
Communications frequencies: [VIEW]

Runways:

RWY identifierQFULength (ft)Width (ft)SurfaceLDA (ft)
0886°5500100CONC
26266°5500100CONC
14142°3576100CONC
32322°3576100CONC

Airport contact information

Address: Keokuk United States

Other aviation service providers

Flight schools

Lindner Aviation, Inc.

Lindner Aviation, Inc.

Satellite view of KEOK